Time;durP1;ratioP1;P1;durP2;ratioP2;P2;SDS_P1;SDS_P2;PMS_P1;PMS_P2;Temp;Humidity;BMP_temperature;BMP_pressure;BME280_temperature;BME280_humidity;BME280_pressure;Samples;Min_cycle;Max_cycle;Signal;HPM_P1;HPM_P2
2023/12/11 00:00:12;;;;;;;0.10;0.10;;;;;;;11.88;72.72;99907.41;5148747;27;20057;-84
2023/12/11 00:02:38;;;;;;;0.10;0.10;;;;;;;11.95;72.42;99908.88;5151830;27;20033;-85
2023/12/11 00:05:04;;;;;;;0.40;0.40;;;;;;;11.85;72.37;99918.16;5150117;27;21196;-83
2023/12/11 00:07:30;;;;;;;0.10;0.10;;;;;;;11.93;72.06;99901.91;5150131;27;20048;-85
2023/12/11 00:09:57;;;;;;;9.40;1.52;;;;;;;11.86;73.00;99917.22;5149571;27;20034;-84
2023/12/11 00:12:23;;;;;;;0.10;0.10;;;;;;;11.95;72.70;99903.59;5152873;27;20120;-85
2023/12/11 00:14:49;;;;;;;0.10;0.10;;;;;;;11.86;73.29;99893.31;5153204;27;20034;-83
2023/12/11 00:17:15;;;;;;;0.10;0.10;;;;;;;11.93;72.25;99901.91;5154618;27;20027;-84
2023/12/11 00:19:41;;;;;;;2.65;1.27;;;;;;;12.02;72.51;99895.41;5151166;27;20019;-83
2023/12/11 00:22:08;;;;;;;0.80;0.80;;;;;;;12.08;72.14;99890.69;5152153;27;20027;-84
2023/12/11 00:24:34;;;;;;;0.10;0.10;;;;;;;12.11;71.78;99898.53;5155580;27;20027;-83
2023/12/11 00:27:01;;;;;;;0.20;0.20;;;;;;;12.08;72.19;99890.69;5145997;27;20027;-84
2023/12/11 00:29:27;;;;;;;0.20;0.20;;;;;;;11.97;71.66;99877.88;5156894;27;20038;-84
2023/12/11 00:31:53;;;;;;;0.10;0.10;;;;;;;12.18;71.21;99880.53;5148409;27;20046;-83
2023/12/11 00:34:19;;;;;;;3.72;0.88;;;;;;;12.22;71.67;99884.78;5152034;27;20102;-85
2023/12/11 00:36:46;;;;;;;0.20;0.20;;;;;;;12.32;70.83;99879.09;5147466;27;20512;-84
2023/12/11 00:39:15;;;;;;;1.40;1.40;;;;;;;12.35;70.82;99890.47;5148928;27;20066;-83
2023/12/11 00:41:44;;;;;;;0.32;0.32;;;;;;;12.30;70.98;99888.00;5157134;27;20368;-84
2023/12/11 00:44:10;;;;;;;0.10;0.10;;;;;;;12.36;70.61;99870.94;5145088;27;20035;-84
2023/12/11 00:46:36;;;;;;;0.40;0.40;;;;;;;12.44;70.82;99873.28;5147758;27;20019;-83
2023/12/11 00:49:03;;;;;;;0.47;0.47;;;;;;;12.55;69.96;99871.00;5152445;27;20029;-84
2023/12/11 00:51:29;;;;;;;0.10;0.10;;;;;;;12.36;70.34;99868.28;5158497;27;20105;-83
2023/12/11 00:53:55;;;;;;;0.40;0.40;;;;;;;12.66;69.80;99877.63;5144494;27;20023;-84
2023/12/11 00:56:21;;;;;;;0.10;0.10;;;;;;;12.64;69.88;99860.91;5153111;27;20027;-84
2023/12/11 00:58:48;;;;;;;0.25;0.25;;;;;;;12.61;70.07;99865.41;5146663;27;20020;-84
2023/12/11 01:01:14;;;;;;;0.05;0.05;;;;;;;12.64;69.74;99868.88;5150272;27;20042;-85
2023/12/11 01:03:40;;;;;;;0.10;0.10;;;;;;;12.66;69.46;99853.72;5148369;27;20098;-82
2023/12/11 01:06:06;;;;;;;0.10;0.10;;;;;;;12.55;70.18;99860.38;5149749;27;20087;-82
2023/12/11 01:08:38;;;;;;;0.60;0.60;;;;;;;12.66;69.29;99861.69;5148331;27;20023;-83
2023/12/11 01:11:05;;;;;;;0.38;0.38;;;;;;;12.66;69.66;99846.63;5149251;27;20023;-82
2023/12/11 01:13:31;;;;;;;0.73;0.73;;;;;;;12.69;69.15;99850.94;5148337;27;20026;-84
2023/12/11 01:15:58;;;;;;;3.40;2.92;;;;;;;12.67;69.33;99848.31;5151938;27;20023;-82
2023/12/11 01:18:25;;;;;;;1.95;1.75;;;;;;;12.77;69.31;99848.78;5155463;27;20023;-84
2023/12/11 01:20:52;;;;;;;1.88;1.77;;;;;;;12.75;69.12;99853.31;5151577;27;20068;-84
2023/12/11 01:23:18;;;;;;;0.10;0.10;;;;;;;12.76;68.85;99834.63;5148824;27;20034;-85
2023/12/11 01:25:44;;;;;;;1.50;1.45;;;;;;;12.82;68.81;99849.44;5145453;27;20146;-83
2023/12/11 01:28:11;;;;;;;0.20;0.20;;;;;;;12.75;69.04;99832.06;5153746;27;20031;-83
2023/12/11 01:30:37;;;;;;;2.17;1.65;;;;;;;12.68;69.52;99844.75;5146651;27;20532;-84
2023/12/11 01:33:03;;;;;;;0.10;0.10;;;;;;;12.59;69.87;99838.03;5147280;27;20035;-84
2023/12/11 01:35:30;;;;;;;0.10;0.10;;;;;;;12.48;69.67;99821.72;5153296;27;20042;-83
2023/12/11 01:37:56;;;;;;;0.38;0.38;;;;;;;12.47;69.62;99817.31;5143703;27;20102;-84
2023/12/11 01:40:22;;;;;;;6.50;2.40;;;;;;;12.34;70.01;99818.81;5145972;27;20048;-84
2023/12/11 01:42:49;;;;;;;0.10;0.10;;;;;;;12.33;70.19;99815.28;5146195;27;20366;-84
2023/12/11 01:45:15;;;;;;;2.45;2.30;;;;;;;12.30;70.77;99816.28;5148943;27;20023;-83
2023/12/11 01:47:41;;;;;;;0.30;0.30;;;;;;;12.08;71.84;99813.69;5142732;27;20537;-83
2023/12/11 01:50:08;;;;;;;1.13;1.13;;;;;;;12.09;71.94;99804.81;5142386;27;20039;-82
2023/12/11 01:52:35;;;;;;;0.10;0.10;;;;;;;12.00;72.69;99804.31;5143455;27;20046;-83
2023/12/11 01:55:04;;;;;;;0.10;0.10;;;;;;;11.95;73.33;99812.44;5146565;27;20110;-82
2023/12/11 01:57:31;;;;;;;0.20;0.20;;;;;;;11.88;73.46;99817.16;5157684;27;20023;-80
2023/12/11 01:59:59;;;;;;;5.90;1.25;;;;;;;11.80;73.95;99803.34;5152834;27;20023;-81
2023/12/11 02:02:25;;;;;;;0.13;0.13;;;;;;;11.74;75.03;99798.28;5147307;27;20106;-81
2023/12/11 02:04:53;;;;;;;0.40;0.40;;;;;;;11.85;74.19;99801.38;5142342;27;20050;-79
2023/12/11 02:07:20;;;;;;;0.10;0.10;;;;;;;11.77;74.62;99792.88;5146299;27;20037;-81
2023/12/11 02:09:46;;;;;;;0.68;0.68;;;;;;;11.78;74.89;99789.28;5140623;27;20031;-81
2023/12/11 02:12:13;;;;;;;0.10;0.10;;;;;;;11.77;74.31;99780.44;5141070;27;20023;-81
2023/12/11 02:14:39;;;;;;;0.45;0.45;;;;;;;11.62;75.03;99789.91;5140764;27;20031;-80
2023/12/11 02:17:09;;;;;;;0.10;0.10;;;;;;;11.68;75.54;99788.81;5143455;27;20035;-81
2023/12/11 02:19:36;;;;;;;0.10;0.10;;;;;;;11.68;75.47;99807.38;5140866;27;20023;-80
2023/12/11 02:22:02;;;;;;;0.20;0.20;;;;;;;11.75;74.92;99784.97;5148617;27;20039;-81
2023/12/11 02:24:36;;;;;;;0.90;0.90;;;;;;;11.68;75.76;99809.19;5141343;27;20497;-81
2023/12/11 02:27:02;;;;;;;0.13;0.13;;;;;;;11.78;75.24;99800.75;5148574;27;20075;-81
2023/12/11 02:29:28;;;;;;;0.10;0.10;;;;;;;11.82;75.41;99764.34;5143205;27;20130;-81
2023/12/11 02:31:55;;;;;;;0.10;0.10;;;;;;;11.74;75.31;99787.66;5156933;27;20079;-81
2023/12/11 02:34:21;;;;;;;0.85;0.85;;;;;;;11.90;75.04;99771.97;5149168;27;20409;-82
2023/12/11 02:36:48;;;;;;;1.65;1.55;;;;;;;12.00;74.92;99767.16;5142676;27;20060;-82
2023/12/11 02:39:14;;;;;;;0.10;0.10;;;;;;;11.98;74.39;99751.31;5144698;27;20034;-80
2023/12/11 02:41:40;;;;;;;1.60;1.40;;;;;;;12.01;74.60;99750.31;5147528;27;20125;-81
2023/12/11 02:44:06;;;;;;;0.10;0.10;;;;;;;11.94;74.55;99747.88;5149185;27;20039;-81
2023/12/11 02:46:33;;;;;;;0.20;0.20;;;;;;;11.88;74.16;99760.56;5144927;27;20023;-81
2023/12/11 02:48:59;;;;;;;0.10;0.10;;;;;;;11.87;74.12;99751.72;5144102;27;20035;-82
2023/12/11 02:51:25;;;;;;;0.20;0.20;;;;;;;11.96;73.80;99740.75;5146097;27;20075;-82
2023/12/11 02:53:51;;;;;;;0.98;0.82;;;;;;;11.87;73.78;99741.09;5146093;27;20031;-80
2023/12/11 02:56:17;;;;;;;0.43;0.43;;;;;;;11.94;73.64;99741.72;5145021;27;20030;-81
2023/12/11 02:58:44;;;;;;;0.20;0.20;;;;;;;12.06;73.30;99735.03;5145903;27;20022;-81
2023/12/11 03:01:10;;;;;;;0.10;0.10;;;;;;;11.95;72.46;99741.66;5158265;27;20027;-81
2023/12/11 03:03:36;;;;;;;5.05;3.10;;;;;;;12.12;72.94;99721.50;5158970;27;20044;-79
2023/12/11 03:06:04;;;;;;;0.17;0.17;;;;;;;12.19;72.43;99728.25;5163919;27;20042;-80
2023/12/11 03:08:30;;;;;;;0.10;0.10;;;;;;;12.15;72.61;99724.03;5164922;27;20028;-81
2023/12/11 03:10:57;;;;;;;0.20;0.20;;;;;;;12.25;71.95;99727.09;5160675;27;20042;-81
2023/12/11 03:13:23;;;;;;;0.32;0.32;;;;;;;12.20;71.90;99737.97;5160398;27;20090;-82
2023/12/11 03:15:49;;;;;;;1.60;1.60;;;;;;;12.25;71.84;99717.38;5163830;27;20193;-81
2023/12/11 03:18:15;;;;;;;0.10;0.10;;;;;;;12.32;72.04;99719.75;5161636;27;20031;-80
2023/12/11 03:20:42;;;;;;;0.40;0.40;;;;;;;12.36;71.39;99721.31;5158194;27;20524;-82
2023/12/11 03:23:08;;;;;;;0.95;0.95;;;;;;;12.39;71.31;99707.91;5149218;27;20031;-82
2023/12/11 03:25:34;;;;;;;3.63;2.42;;;;;;;12.16;72.19;99711.59;5146935;27;20026;-82
2023/12/11 03:28:00;;;;;;;1.00;1.00;;;;;;;12.11;71.92;99728.59;5148057;27;20034;-82
2023/12/11 03:30:26;;;;;;;0.20;0.20;;;;;;;12.11;71.87;99706.47;5148292;27;20025;-82
2023/12/11 03:32:53;;;;;;;0.15;0.15;;;;;;;12.19;72.42;99704.34;5142683;27;20468;-82
2023/12/11 03:35:19;;;;;;;3.67;3.38;;;;;;;12.16;72.83;99699.16;5147736;27;20041;-80
2023/12/11 03:37:45;;;;;;;0.10;0.10;;;;;;;12.09;73.35;99698.59;5143274;27;20030;-80
2023/12/11 03:40:11;;;;;;;0.20;0.20;;;;;;;12.08;73.41;99720.75;5150269;27;20034;-81
2023/12/11 03:42:38;;;;;;;0.15;0.15;;;;;;;12.06;72.65;99703.19;5143830;27;20074;-82
2023/12/11 03:45:04;;;;;;;0.13;0.13;;;;;;;12.09;73.13;99706.56;5145548;27;20070;-80
2023/12/11 03:47:30;;;;;;;4.20;2.60;;;;;;;12.13;72.90;99704.63;5143905;27;20023;-82
2023/12/11 03:49:57;;;;;;;4.45;2.35;;;;;;;12.08;72.92;99698.66;5141907;27;20031;-80
2023/12/11 03:52:23;;;;;;;0.10;0.10;;;;;;;11.94;73.24;99694.78;5148206;27;20028;-82
2023/12/11 03:54:49;;;;;;;6.18;3.08;;;;;;;12.01;73.06;99694.56;5143974;27;20047;-81
2023/12/11 03:57:15;;;;;;;0.20;0.20;;;;;;;11.94;72.45;99699.25;5149760;27;20497;-81
2023/12/11 03:59:41;;;;;;;8.70;1.25;;;;;;;11.94;72.58;99699.25;5142755;27;20102;-81
2023/12/11 04:02:08;;;;;;;0.30;0.30;;;;;;;11.95;72.03;99693.88;5143479;27;20026;-81
2023/12/11 04:04:34;;;;;;;0.90;0.90;;;;;;;11.92;72.54;99666.59;5143411;27;20050;-82
2023/12/11 04:07:00;;;;;;;4.50;1.90;;;;;;;12.00;71.88;99682.22;5144454;27;20096;-82
2023/12/11 04:09:27;;;;;;;0.43;0.43;;;;;;;11.97;71.29;99686.75;5153249;27;20023;-82
2023/12/11 04:11:53;;;;;;;0.17;0.17;;;;;;;12.04;71.35;99705.06;5144540;27;20102;-82
2023/12/11 04:14:19;;;;;;;2.40;1.45;;;;;;;12.15;71.56;99673.56;5151092;27;20396;-82
2023/12/11 04:16:45;;;;;;;2.47;2.38;;;;;;;12.14;70.82;99674.50;5145461;27;20027;-83
2023/12/11 04:19:12;;;;;;;0.10;0.10;;;;;;;12.09;70.93;99674.69;5151843;27;20417;-80
2023/12/11 04:21:38;;;;;;;1.08;1.08;;;;;;;12.00;70.95;99679.56;5146371;27;20087;-83
2023/12/11 04:24:05;;;;;;;0.50;0.50;;;;;;;12.20;69.82;99679.53;5143842;27;20032;-82
2023/12/11 04:26:31;;;;;;;0.10;0.10;;;;;;;12.21;69.40;99675.06;5147414;27;20026;-82
2023/12/11 04:28:57;;;;;;;0.10;0.10;;;;;;;12.22;69.50;99661.72;5147283;27;20019;-81
2023/12/11 04:31:24;;;;;;;0.77;0.77;;;;;;;12.31;69.61;99676.38;5142708;27;20070;-81
2023/12/11 04:33:50;;;;;;;0.10;0.10;;;;;;;12.16;69.33;99667.31;5155569;27;20519;-80
2023/12/11 04:36:17;;;;;;;0.10;0.10;;;;;;;12.25;68.90;99669.56;5151493;27;20027;-80
2023/12/11 04:38:43;;;;;;;0.65;0.65;;;;;;;12.28;68.53;99689.81;5155741;27;20027;-82
2023/12/11 04:41:09;;;;;;;0.17;0.17;;;;;;;12.38;68.24;99674.31;5151354;27;20086;-83
2023/12/11 04:43:36;;;;;;;0.10;0.10;;;;;;;12.37;68.61;99672.59;5146676;27;20031;-83
2023/12/11 04:46:02;;;;;;;0.20;0.20;;;;;;;12.35;68.65;99655.84;5151004;27;20043;-83
2023/12/11 04:48:28;;;;;;;0.10;0.10;;;;;;;12.26;68.70;99658.00;5145945;27;20562;-82
2023/12/11 04:50:54;;;;;;;0.57;0.57;;;;;;;12.26;68.17;99665.97;5150561;27;20058;-82
2023/12/11 04:53:20;;;;;;;0.20;0.20;;;;;;;12.39;68.43;99649.47;5154855;27;20035;-81
2023/12/11 04:55:47;;;;;;;0.10;0.10;;;;;;;12.33;68.02;99645.28;5152111;27;20065;-83
2023/12/11 04:58:13;;;;;;;0.10;0.10;;;;;;;12.32;67.26;99661.31;5144630;27;20011;-83
2023/12/11 05:00:39;;;;;;;1.88;1.55;;;;;;;12.39;67.64;99658.28;5146198;27;20088;-83
2023/12/11 05:03:05;;;;;;;0.10;0.10;;;;;;;12.48;67.32;99648.19;5157579;27;20026;-82
2023/12/11 05:05:31;;;;;;;0.10;0.10;;;;;;;12.35;67.45;99635.47;5150902;27;20450;-84
2023/12/11 05:07:57;;;;;;;0.10;0.10;;;;;;;12.39;67.65;99638.84;5146803;27;20031;-83
2023/12/11 05:10:24;;;;;;;0.28;0.28;;;;;;;12.30;67.21;99643.66;5151477;27;20036;-84
2023/12/11 05:12:50;;;;;;;0.55;0.55;;;;;;;12.41;66.78;99651.13;5151736;27;20103;-84
2023/12/11 05:15:16;;;;;;;0.10;0.10;;;;;;;12.38;66.95;99653.06;5149129;27;20035;-83
2023/12/11 05:17:42;;;;;;;0.10;0.10;;;;;;;12.41;67.35;99651.13;5148374;27;20015;-83
2023/12/11 05:20:10;;;;;;;0.10;0.10;;;;;;;12.35;67.49;99653.19;5146907;27;20033;-83
2023/12/11 05:22:36;;;;;;;0.10;0.10;;;;;;;12.22;67.55;99660.88;5155619;27;20019;-82
2023/12/11 05:25:02;;;;;;;0.20;0.20;;;;;;;12.16;67.62;99656.69;5149523;27;20027;-84
2023/12/11 05:27:29;;;;;;;0.45;0.45;;;;;;;12.17;68.81;99653.09;5146579;27;20035;-82
2023/12/11 05:29:55;;;;;;;0.15;0.15;;;;;;;12.23;68.63;99644.84;5151380;27;20031;-81
2023/12/11 05:32:21;;;;;;;0.63;0.63;;;;;;;12.27;68.31;99635.84;5149577;27;20083;-82
2023/12/11 05:34:47;;;;;;;0.77;0.77;;;;;;;12.06;67.98;99644.78;5147735;27;20577;-83
2023/12/11 05:37:13;;;;;;;1.90;1.80;;;;;;;12.23;68.21;99668.75;5147597;27;20034;-82
2023/12/11 05:39:39;;;;;;;0.10;0.10;;;;;;;12.17;67.70;99626.56;5146079;27;20019;-82
2023/12/11 05:42:06;;;;;;;0.30;0.30;;;;;;;12.22;67.56;99635.16;5147728;27;20058;-83
2023/12/11 05:44:32;;;;;;;0.20;0.20;;;;;;;12.17;68.07;99639.81;5142929;27;20042;-83
2023/12/11 05:46:58;;;;;;;1.48;1.48;;;;;;;12.15;68.71;99636.41;5146089;27;20023;-84
2023/12/11 05:49:25;;;;;;;0.20;0.20;;;;;;;12.06;68.92;99642.13;5140799;27;20076;-85
2023/12/11 05:51:51;;;;;;;0.10;0.10;;;;;;;12.08;69.01;99648.22;5144555;27;20035;-84
2023/12/11 05:54:17;;;;;;;0.10;0.10;;;;;;;12.07;69.47;99610.19;5149064;27;20027;-84
2023/12/11 05:56:43;;;;;;;5.28;2.28;;;;;;;11.93;69.84;99618.75;5152077;27;20062;-83
2023/12/11 05:59:10;;;;;;;0.20;0.20;;;;;;;11.82;70.87;99647.56;5145329;27;20548;-82
2023/12/11 06:01:36;;;;;;;0.20;0.20;;;;;;;11.70;71.42;99618.91;5151858;27;20018;-83
2023/12/11 06:04:03;;;;;;;0.30;0.30;;;;;;;11.73;71.64;99616.16;5154692;27;20031;-84
2023/12/11 06:06:29;;;;;;;0.10;0.10;;;;;;;11.74;71.53;99633.75;5146283;27;20053;-84
2023/12/11 06:08:55;;;;;;;0.10;0.10;;;;;;;11.65;70.83;99630.59;5148636;27;20190;-83
2023/12/11 06:11:21;;;;;;;0.17;0.17;;;;;;;11.58;70.86;99638.91;5142897;27;20076;-82
2023/12/11 06:13:48;;;;;;;0.10;0.10;;;;;;;11.66;70.65;99647.38;5141562;27;20131;-83
2023/12/11 06:16:14;;;;;;;0.10;0.10;;;;;;;11.68;70.27;99649.97;5149042;27;20397;-83
2023/12/11 06:18:41;;;;;;;0.20;0.20;;;;;;;11.76;70.42;99634.56;5151719;27;20100;-84
2023/12/11 06:21:16;;;;;;;0.10;0.10;;;;;;;11.80;69.21;99644.09;5147447;27;20023;-81
2023/12/11 06:23:42;;;;;;;0.10;0.10;;;;;;;11.83;69.01;99643.97;5142711;27;20028;-82
2023/12/11 06:26:08;;;;;;;0.10;0.10;;;;;;;11.82;70.18;99639.59;5140547;27;20034;-82
2023/12/11 06:28:35;;;;;;;0.10;0.10;;;;;;;11.79;70.06;99648.56;5140111;27;20057;-84
2023/12/11 06:31:01;;;;;;;0.52;0.52;;;;;;;11.76;70.34;99647.84;5139311;27;20031;-83
2023/12/11 06:33:27;;;;;;;1.33;1.27;;;;;;;11.74;70.80;99660.28;5144026;27;20050;-83
2023/12/11 06:35:53;;;;;;;0.15;0.15;;;;;;;11.65;70.62;99670.41;5139842;27;20087;-82
2023/12/11 06:38:19;;;;;;;0.43;0.43;;;;;;;11.54;71.72;99664.69;5146232;27;20023;-82
2023/12/11 06:40:45;;;;;;;0.10;0.10;;;;;;;11.53;72.25;99668.28;5148045;27;20528;-83
2023/12/11 06:43:11;;;;;;;0.10;0.10;;;;;;;11.45;72.75;99665.06;5140318;27;20035;-78
2023/12/11 06:45:38;;;;;;;0.30;0.30;;;;;;;11.56;72.06;99668.13;5137414;27;20015;-82
2023/12/11 06:48:04;;;;;;;0.20;0.20;;;;;;;11.51;72.93;99693.16;5138075;27;20531;-78
2023/12/11 06:50:30;;;;;;;14.90;3.20;;;;;;;11.48;73.46;99694.13;5142681;27;20400;-82
2023/12/11 06:52:56;;;;;;;0.10;0.10;;;;;;;11.49;72.97;99688.75;5144225;27;20059;-80
2023/12/11 06:55:23;;;;;;;0.17;0.17;;;;;;;11.47;73.55;99697.72;5148594;27;20133;-82
2023/12/11 06:57:49;;;;;;;0.20;0.20;;;;;;;11.36;74.25;99705.25;5143950;27;20022;-81
2023/12/11 07:00:15;;;;;;;0.20;0.20;;;;;;;11.31;74.81;99711.63;5145653;27;20027;-81
2023/12/11 07:02:42;;;;;;;0.10;0.10;;;;;;;11.40;74.84;99709.50;5144824;27;20019;-80
2023/12/11 07:05:08;;;;;;;0.38;0.38;;;;;;;11.27;75.43;99710.00;5148662;27;20047;-82
2023/12/11 07:07:35;;;;;;;1.10;1.10;;;;;;;11.18;75.89;99713.03;5148497;27;20031;-81
2023/12/11 07:10:04;;;;;;;0.20;0.20;;;;;;;11.24;76.00;99731.34;5144601;27;20027;-80
2023/12/11 07:12:30;;;;;;;0.68;0.68;;;;;;;11.23;75.37;99726.97;5146002;27;20067;-82
2023/12/11 07:14:57;;;;;;;0.20;0.20;;;;;;;11.16;75.61;99770.56;5150126;27;20027;-78
2023/12/11 07:17:23;;;;;;;0.10;0.10;;;;;;;11.17;74.72;99725.41;5163236;27;20033;-79
2023/12/11 07:19:49;;;;;;;0.20;0.20;;;;;;;11.27;74.59;99759.53;5146509;27;20034;-84
2023/12/11 07:22:15;;;;;;;0.10;0.10;;;;;;;11.32;75.18;99745.16;5146011;27;20031;-81
2023/12/11 07:24:41;;;;;;;0.10;0.10;;;;;;;11.30;74.61;99743.50;5145287;27;20028;-79
2023/12/11 07:27:08;;;;;;;0.13;0.13;;;;;;;11.36;75.23;99755.66;5146564;27;20031;-79
2023/12/11 07:29:34;;;;;;;0.10;0.10;;;;;;;11.25;75.27;99772.88;5139542;27;20035;-81
2023/12/11 07:32:01;;;;;;;0.82;0.82;;;;;;;11.32;74.96;99765.50;5145386;27;20653;-82
2023/12/11 07:34:27;;;;;;;0.10;0.10;;;;;;;11.26;74.75;99773.72;5145632;27;20086;-80
2023/12/11 07:36:54;;;;;;;0.20;0.20;;;;;;;11.30;74.88;99785.91;5155521;27;20143;-81
2023/12/11 07:39:21;;;;;;;0.30;0.30;;;;;;;11.24;74.74;99810.91;5149330;27;20018;-80
2023/12/11 07:41:47;;;;;;;0.10;0.10;;;;;;;11.28;74.23;99795.75;5152363;27;20027;-79
2023/12/11 07:44:13;;;;;;;0.22;0.22;;;;;;;11.19;74.48;99804.91;5153480;27;20034;-81
2023/12/11 07:46:39;;;;;;;0.40;0.40;;;;;;;11.26;74.10;99806.38;5157984;27;20047;-82
2023/12/11 07:49:05;;;;;;;0.10;0.10;;;;;;;11.31;74.08;99795.59;5150940;27;20031;-83
2023/12/11 07:51:32;;;;;;;0.38;0.38;;;;;;;11.28;74.41;99812.50;5155771;27;20466;-83
2023/12/11 07:53:58;;;;;;;0.10;0.10;;;;;;;11.13;74.84;99834.31;5153241;27;20603;-83
2023/12/11 07:56:25;;;;;;;0.10;0.10;;;;;;;11.13;75.45;99839.63;5155672;27;20023;-83
2023/12/11 07:58:52;;;;;;;0.10;0.10;;;;;;;11.11;75.38;99847.63;5154318;27;20490;-83
2023/12/11 08:01:19;;;;;;;0.20;0.20;;;;;;;11.08;75.75;99844.22;5153471;27;20033;-83
2023/12/11 08:03:46;;;;;;;0.10;0.10;;;;;;;11.14;75.03;99862.53;5153165;27;20038;-81
2023/12/11 08:06:12;;;;;;;0.10;0.10;;;;;;;11.14;75.61;99875.78;5152676;27;20102;-82
2023/12/11 08:08:43;;;;;;;0.10;0.10;;;;;;;10.99;75.99;99856.91;5152342;27;20027;-83
2023/12/11 08:13:52;;;;;;;0.10;0.10;;;;;;;11.03;76.21;99885.94;5126322;27;20408;-80
2023/12/11 08:16:20;;;;;;;0.20;0.20;;;;;;;11.03;75.64;99894.78;5122735;28;20049;-80
2023/12/11 08:18:47;;;;;;;2.67;2.35;;;;;;;11.11;75.56;99897.13;5110691;28;20024;-80
2023/12/11 08:21:16;;;;;;;0.10;0.10;;;;;;;10.94;75.45;99911.88;5112701;28;20027;-78
2023/12/11 08:23:44;;;;;;;0.20;0.20;;;;;;;10.90;75.44;99899.63;5098286;28;20046;-80
2023/12/11 08:26:11;;;;;;;0.10;0.10;;;;;;;11.03;74.82;99917.75;5107830;28;20024;-79
2023/12/11 08:28:37;;;;;;;0.10;0.10;;;;;;;11.02;74.17;99935.44;5108845;28;20029;-80
2023/12/11 08:31:03;;;;;;;0.10;0.10;;;;;;;11.01;73.38;99941.66;5116803;28;20023;-79
2023/12/11 08:33:30;;;;;;;0.10;0.10;;;;;;;11.11;72.91;99936.91;5106808;28;20470;-80
2023/12/11 08:35:56;;;;;;;0.10;0.10;;;;;;;11.06;72.10;99942.34;5088240;28;20025;-80
2023/12/11 08:38:23;;;;;;;0.10;0.10;;;;;;;11.22;71.78;99971.84;5106237;28;20046;-81
2023/12/11 08:40:50;;;;;;;0.10;0.10;;;;;;;11.08;71.28;99963.50;5106658;28;20099;-80
2023/12/11 08:43:16;;;;;;;0.17;0.17;;;;;;;11.19;70.72;99952.50;5111840;28;20012;-78
2023/12/11 08:45:43;;;;;;;0.10;0.10;;;;;;;11.20;70.51;99973.66;5095515;28;20028;-78
2023/12/11 08:48:09;;;;;;;0.10;0.10;;;;;;;11.28;69.95;99987.53;5098633;28;20024;-80
2023/12/11 08:50:35;;;;;;;0.10;0.10;;;;;;;11.35;70.04;99985.50;5098295;28;20042;-80
2023/12/11 08:53:03;;;;;;;0.40;0.40;;;;;;;11.26;69.18;99983.19;5106550;28;20024;-80
2023/12/11 08:55:29;;;;;;;3.25;2.95;;;;;;;11.37;69.39;99990.75;5099907;28;20029;-79
2023/12/11 08:57:56;;;;;;;0.15;0.15;;;;;;;11.47;68.83;100002.75;5098499;28;20093;-80
2023/12/11 09:00:22;;;;;;;0.20;0.20;;;;;;;11.32;69.59;100010.34;5112665;28;20102;-81
2023/12/11 09:02:49;;;;;;;10.57;1.65;;;;;;;11.41;69.06;100008.28;5106264;28;20572;-79
2023/12/11 09:05:15;;;;;;;0.32;0.32;;;;;;;11.45;68.31;100036.41;5111038;28;20032;-78
2023/12/11 09:07:42;;;;;;;0.10;0.10;;;;;;;11.47;67.82;100029.28;5106131;28;20499;-79
2023/12/11 09:10:09;;;;;;;0.22;0.22;;;;;;;11.59;67.54;100027.94;5104792;28;20482;-80
2023/12/11 09:12:36;;;;;;;0.10;0.10;;;;;;;11.64;67.48;100042.78;5104261;28;20032;-80
2023/12/11 09:15:03;;;;;;;0.15;0.15;;;;;;;11.65;67.75;100049.81;5097085;28;20107;-79
2023/12/11 09:17:30;;;;;;;0.20;0.20;;;;;;;11.62;67.65;100063.19;5108399;28;20114;-80
2023/12/11 09:19:56;;;;;;;0.10;0.10;;;;;;;11.53;67.26;100066.19;5098418;28;20559;-80
2023/12/11 09:22:22;;;;;;;0.20;0.20;;;;;;;11.65;67.01;100068.41;5111568;28;20027;-80
2023/12/11 09:24:48;;;;;;;0.10;0.10;;;;;;;11.59;67.75;100071.28;5092743;28;20066;-80
2023/12/11 09:27:15;;;;;;;0.10;0.10;;;;;;;11.63;66.95;100082.66;5096877;28;20031;-81
2023/12/11 09:29:41;;;;;;;0.30;0.30;;;;;;;11.52;67.62;100111.34;5088010;28;20028;-79
2023/12/11 09:32:07;;;;;;;0.20;0.20;;;;;;;11.57;67.01;100099.63;5091852;28;20028;-80
2023/12/11 09:34:34;;;;;;;2.60;1.42;;;;;;;11.44;67.40;100096.56;5090453;28;20035;-79
2023/12/11 09:37:00;;;;;;;0.10;0.10;;;;;;;11.53;67.43;100097.19;5091009;28;20043;-81
2023/12/11 09:39:26;;;;;;;0.10;0.10;;;;;;;11.48;67.03;100113.25;5095045;28;20032;-81
2023/12/11 09:41:53;;;;;;;0.10;0.10;;;;;;;11.54;66.15;100115.69;5090484;28;20036;-81
2023/12/11 09:44:21;;;;;;;0.60;0.60;;;;;;;11.58;66.49;100125.25;5093963;28;20036;-80
2023/12/11 09:46:52;;;;;;;0.25;0.25;;;;;;;11.60;66.31;100125.19;5092766;28;20093;-80
2023/12/11 09:49:19;;;;;;;8.25;3.85;;;;;;;11.69;65.66;100124.00;5088032;28;20024;-80
2023/12/11 09:51:45;;;;;;;0.10;0.10;;;;;;;11.61;65.01;100127.81;5083577;28;20404;-80
2023/12/11 09:54:12;;;;;;;0.10;0.10;;;;;;;11.63;64.94;100135.72;5090497;28;20028;-80
2023/12/11 09:56:42;;;;;;;0.10;0.10;;;;;;;11.57;65.34;100152.69;5094413;28;20111;-80
2023/12/11 09:59:10;;;;;;;0.10;0.10;;;;;;;11.59;65.16;100166.78;5089680;28;20028;-80
2023/12/11 10:01:36;;;;;;;0.10;0.10;;;;;;;11.73;65.14;100160.13;5095819;28;20053;-80
2023/12/11 10:04:03;;;;;;;0.20;0.20;;;;;;;11.73;64.58;100168.09;5090934;28;20086;-80
2023/12/11 10:06:29;;;;;;;0.10;0.10;;;;;;;11.78;65.03;100182.06;5087612;28;20024;-80
2023/12/11 10:08:55;;;;;;;0.10;0.10;;;;;;;11.85;64.65;100180.94;5090353;28;20089;-80
2023/12/11 10:11:22;;;;;;;0.10;0.10;;;;;;;11.90;64.99;100181.63;5088616;28;20024;-79
2023/12/11 10:13:50;;;;;;;0.25;0.25;;;;;;;11.83;64.93;100201.34;5090971;28;20024;-80
2023/12/11 10:16:33;;;;;;;0.35;0.35;;;;;;;11.90;64.13;100201.97;5091962;28;20443;-79
2023/12/11 10:19:01;;;;;;;0.10;0.10;;;;;;;11.88;64.23;100210.00;5091473;28;20024;-80
2023/12/11 10:21:37;;;;;;;0.10;0.10;;;;;;;11.93;63.89;100217.81;5093042;28;20027;-80
2023/12/11 10:24:05;;;;;;;0.10;0.10;;;;;;;11.86;63.79;100217.16;5077314;28;20031;-80
2023/12/11 10:26:35;;;;;;;0.10;0.10;;;;;;;11.92;62.97;100216.06;5093391;28;20017;-80
2023/12/11 10:29:23;;;;;;;0.10;0.10;;;;;;;11.96;63.27;100236.31;5075352;28;20031;-81
2023/12/11 10:31:52;;;;;;;0.10;0.10;;;;;;;11.90;63.49;100232.06;5093629;28;20025;-81
2023/12/11 10:34:18;;;;;;;0.10;0.10;;;;;;;11.84;63.54;100244.66;5086885;28;20033;-81
2023/12/11 10:36:52;;;;;;;0.10;0.10;;;;;;;11.83;63.65;100254.44;5084711;28;20032;-80
2023/12/11 10:39:19;;;;;;;0.10;0.10;;;;;;;11.77;63.64;100244.88;5093583;28;20024;-80
2023/12/11 10:41:46;;;;;;;0.10;0.10;;;;;;;11.84;63.63;100248.22;5088618;28;20027;-81
2023/12/11 10:44:27;;;;;;;0.70;0.65;;;;;;;12.09;63.14;100242.91;5086890;28;20472;-79
2023/12/11 10:46:54;;;;;;;0.38;0.38;;;;;;;11.86;63.50;100259.63;5082727;28;20033;-81
2023/12/11 10:49:23;;;;;;;0.10;0.10;;;;;;;11.93;63.22;100239.91;5089162;28;20025;-79
2023/12/11 10:51:50;;;;;;;0.85;0.85;;;;;;;12.00;63.02;100245.03;5088507;28;20077;-81
2023/12/11 10:54:16;;;;;;;0.55;0.55;;;;;;;11.96;63.50;100244.28;5087502;28;20035;-78
2023/12/11 10:56:46;;;;;;;0.10;0.10;;;;;;;11.86;64.12;100264.06;5085553;28;20028;-80
2023/12/11 10:59:13;;;;;;;0.10;0.10;;;;;;;12.00;63.49;100267.16;5081773;28;20395;-80
2023/12/11 11:01:44;;;;;;;0.68;0.68;;;;;;;11.95;63.68;100264.63;5070578;28;20051;-79
2023/12/11 11:04:12;;;;;;;0.20;0.20;;;;;;;11.95;63.25;100277.91;5090153;28;20051;-82
2023/12/11 11:06:48;;;;;;;0.10;0.10;;;;;;;12.05;62.99;100274.94;5083967;28;20078;-80
2023/12/11 11:09:24;;;;;;;0.20;0.20;;;;;;;12.09;62.91;100261.50;5092300;28;20070;-80
2023/12/11 11:12:01;;;;;;;0.20;0.20;;;;;;;12.03;61.86;100285.63;5089017;28;20036;-80
2023/12/11 11:14:47;;;;;;;0.45;0.45;;;;;;;12.19;61.47;100272.66;5086125;28;20035;-80
2023/12/11 11:17:14;;;;;;;0.10;0.10;;;;;;;12.16;61.50;100272.75;5079168;28;20534;-78
2023/12/11 11:22:44;;;;;;;0.10;0.10;;;;;;;12.30;60.34;100272.28;5075823;28;20406;-80
2023/12/11 11:31:12;;;;;;;0.10;0.10;;;;;;;12.16;59.77;100317.91;5115378;27;1187306;-79
2023/12/11 11:33:44;;;;;;;0.10;0.10;;;;;;;12.38;59.69;100303.88;5140618;27;20031;-76
2023/12/11 11:36:10;;;;;;;0.20;0.20;;;;;;;12.11;60.76;100306.59;5147753;27;20019;-79
2023/12/11 11:38:57;;;;;;;0.10;0.10;;;;;;;12.12;61.32;100327.81;5126110;27;20042;-77
2023/12/11 11:41:26;;;;;;;0.10;0.10;;;;;;;12.03;62.92;100313.97;5099546;28;20024;-78